Alum Bank, Pennsylvania
Current Conditions -  °F | °C
As of 12:54 AM on Thursday 18 Dec 2014 (Local Time) from KJST Reporting Station
Overcast Overcast  
Wind Chill:   Ceiling: 2600
Heat Index: 25°   Visibility: 10mi
Dew Point: 15°   Wind: 28mph
Humidity: 66%   Direction: 290°WNW
Pressure: 30.01"   Gusts: 37mph
Location:  40.18°N, 78.61°W
Report Text: KJST 180554Z AUTO 29024G32KT 10SM OVC026 M04/M09 A3001 RMK AO2 PK WND 29032/0554 SLP189 60000 T10391094 11022 21039 51005
Loading
Personal Weather Stations






























Interactive Weather Map New forecast layout! Learn more

10-Day Weather Forecast

Advertisements
Track Severe Weather on mobile